sensor_id;sensor_type;location;lat;lon;timestamp;pressure;altitude;pressure_sealevel;temperature;humidity
23473;BME280;11909;52.516;13.564;2023-12-20T00:01:22;100101.16;;;5.99;100.00
23473;BME280;11909;52.516;13.564;2023-12-20T00:03:50;100088.34;;;5.89;100.00
23473;BME280;11909;52.516;13.564;2023-12-20T00:06:18;100081.00;;;5.95;100.00
23473;BME280;11909;52.516;13.564;2023-12-20T00:08:47;100082.06;;;5.94;100.00
23473;BME280;11909;52.516;13.564;2023-12-20T00:11:15;100070.66;;;5.97;100.00
23473;BME280;11909;52.516;13.564;2023-12-20T00:13:43;100069.53;;;5.93;100.00
23473;BME280;11909;52.516;13.564;2023-12-20T00:16:15;100078.06;;;6.01;100.00
23473;BME280;11909;52.516;13.564;2023-12-20T00:18:43;100073.91;;;5.99;100.00
23473;BME280;11909;52.516;13.564;2023-12-20T00:21:11;100070.09;;;5.95;100.00
23473;BME280;11909;52.516;13.564;2023-12-20T00:23:39;100066.91;;;6.03;100.00
23473;BME280;11909;52.516;13.564;2023-12-20T00:26:09;100065.19;;;5.97;100.00
23473;BME280;11909;52.516;13.564;2023-12-20T00:28:37;100068.81;;;6.02;100.00
23473;BME280;11909;52.516;13.564;2023-12-20T00:31:04;100066.28;;;5.96;100.00
23473;BME280;11909;52.516;13.564;2023-12-20T00:33:33;100068.22;;;5.95;100.00
23473;BME280;11909;52.516;13.564;2023-12-20T00:36:01;100059.19;;;5.95;100.00
23473;BME280;11909;52.516;13.564;2023-12-20T00:38:28;100055.69;;;5.94;100.00
23473;BME280;11909;52.516;13.564;2023-12-20T00:40:56;100045.59;;;5.95;100.00
23473;BME280;11909;52.516;13.564;2023-12-20T00:43:26;100048.06;;;5.96;100.00
23473;BME280;11909;52.516;13.564;2023-12-20T00:45:54;100051.31;;;5.93;100.00
23473;BME280;11909;52.516;13.564;2023-12-20T00:48:22;100055.69;;;5.94;100.00
23473;BME280;11909;52.516;13.564;2023-12-20T00:50:50;100046.13;;;5.97;100.00
23473;BME280;11909;52.516;13.564;2023-12-20T00:53:18;100036.31;;;5.96;100.00
23473;BME280;11909;52.516;13.564;2023-12-20T00:55:46;100047.75;;;5.93;100.00
23473;BME280;11909;52.516;13.564;2023-12-20T00:58:14;100039.88;;;5.96;100.00
23473;BME280;11909;52.516;13.564;2023-12-20T01:00:43;100040.69;;;5.92;100.00
23473;BME280;11909;52.516;13.564;2023-12-20T01:03:12;100039.03;;;5.91;100.00
23473;BME280;11909;52.516;13.564;2023-12-20T01:05:41;100043.69;;;5.95;100.00
23473;BME280;11909;52.516;13.564;2023-12-20T01:08:09;100040.38;;;5.83;100.00
23473;BME280;11909;52.516;13.564;2023-12-20T01:10:36;100053.22;;;5.93;100.00
23473;BME280;11909;52.516;13.564;2023-12-20T01:13:04;100051.88;;;5.95;100.00
23473;BME280;11909;52.516;13.564;2023-12-20T01:15:32;100045.34;;;5.96;100.00
23473;BME280;11909;52.516;13.564;2023-12-20T01:18:02;100050.03;;;6.01;100.00
23473;BME280;11909;52.516;13.564;2023-12-20T01:20:30;100046.44;;;6.00;100.00
23473;BME280;11909;52.516;13.564;2023-12-20T01:22:58;100050.03;;;6.01;100.00
23473;BME280;11909;52.516;13.564;2023-12-20T01:25:26;100057.03;;;5.97;100.00
23473;BME280;11909;52.516;13.564;2023-12-20T01:27:54;100047.84;;;6.03;100.00
23473;BME280;11909;52.516;13.564;2023-12-20T01:30:22;100047.84;;;6.03;100.00
23473;BME280;11909;52.516;13.564;2023-12-20T01:32:51;100044.25;;;5.97;100.00
23473;BME280;11909;52.516;13.564;2023-12-20T01:35:20;100051.13;;;6.05;100.00
23473;BME280;11909;52.516;13.564;2023-12-20T01:37:48;100047.00;;;6.02;100.00
23473;BME280;11909;52.516;13.564;2023-12-20T01:40:16;100037.50;;;6.05;100.00
23473;BME280;11909;52.516;13.564;2023-12-20T01:42:44;100039.69;;;6.08;100.00
23473;BME280;11909;52.516;13.564;2023-12-20T01:45:12;100036.41;;;6.01;100.00
23473;BME280;11909;52.516;13.564;2023-12-20T01:47:40;100041.56;;;6.08;100.00
23473;BME280;11909;52.516;13.564;2023-12-20T01:50:08;100037.19;;;6.01;100.00
23473;BME280;11909;52.516;13.564;2023-12-20T01:52:38;100035.03;;;6.03;100.00
23473;BME280;11909;52.516;13.564;2023-12-20T01:55:06;100023.59;;;6.01;100.00
23473;BME280;11909;52.516;13.564;2023-12-20T01:57:40;100033.59;;;5.96;100.00
23473;BME280;11909;52.516;13.564;2023-12-20T02:00:11;100025.97;;;5.98;100.00
23473;BME280;11909;52.516;13.564;2023-12-20T02:02:41;100024.13;;;6.09;100.00
23473;BME280;11909;52.516;13.564;2023-12-20T02:05:09;100018.38;;;6.00;100.00
23473;BME280;11909;52.516;13.564;2023-12-20T02:07:39;100021.34;;;5.93;100.00
23473;BME280;11909;52.516;13.564;2023-12-20T02:10:08;100024.06;;;5.93;100.00
23473;BME280;11909;52.516;13.564;2023-12-20T02:12:36;100009.63;;;5.98;100.00
23473;BME280;11909;52.516;13.564;2023-12-20T02:15:05;100002.56;;;5.97;100.00
23473;BME280;11909;52.516;13.564;2023-12-20T02:17:33;100008.56;;;5.99;100.00
23473;BME280;11909;52.516;13.564;2023-12-20T02:20:02;100020.81;;;5.96;100.00
23473;BME280;11909;52.516;13.564;2023-12-20T02:22:31;100025.19;;;5.97;100.00
23473;BME280;11909;52.516;13.564;2023-12-20T02:24:59;100039.94;;;6.07;100.00
23473;BME280;11909;52.516;13.564;2023-12-20T02:27:27;100057.31;;;5.95;100.00
23473;BME280;11909;52.516;13.564;2023-12-20T02:29:56;100054.56;;;5.90;100.00
23473;BME280;11909;52.516;13.564;2023-12-20T02:32:24;100058.09;;;5.85;100.00
23473;BME280;11909;52.516;13.564;2023-12-20T02:34:54;100056.94;;;5.76;100.00
23473;BME280;11909;52.516;13.564;2023-12-20T02:37:22;100061.56;;;5.70;100.00
23473;BME280;11909;52.516;13.564;2023-12-20T02:39:51;100069.44;;;5.67;100.00
23473;BME280;11909;52.516;13.564;2023-12-20T02:42:19;100075.31;;;5.53;100.00
23473;BME280;11909;52.516;13.564;2023-12-20T02:44:47;100048.97;;;5.59;100.00
23473;BME280;11909;52.516;13.564;2023-12-20T02:47:15;100050.91;;;5.64;100.00
23473;BME280;11909;52.516;13.564;2023-12-20T02:49:43;100050.66;;;5.70;100.00
23473;BME280;11909;52.516;13.564;2023-12-20T02:52:11;100044.13;;;5.66;100.00
23473;BME280;11909;52.516;13.564;2023-12-20T02:54:39;100049.84;;;5.75;100.00
23473;BME280;11909;52.516;13.564;2023-12-20T02:57:08;100045.22;;;5.65;100.00
23473;BME280;11909;52.516;13.564;2023-12-20T02:59:36;100035.69;;;5.68;100.00
23473;BME280;11909;52.516;13.564;2023-12-20T03:02:04;100033.75;;;5.63;100.00
23473;BME280;11909;52.516;13.564;2023-12-20T03:04:32;100021.25;;;5.67;100.00
23473;BME280;11909;52.516;13.564;2023-12-20T03:07:00;100016.31;;;5.64;100.00
23473;BME280;11909;52.516;13.564;2023-12-20T03:09:28;100023.97;;;5.67;100.00
23473;BME280;11909;52.516;13.564;2023-12-20T03:12:08;100015.84;;;5.78;100.00
23473;BME280;11909;52.516;13.564;2023-12-20T03:14:37;100024.84;;;5.78;100.00
23473;BME280;11909;52.516;13.564;2023-12-20T03:17:04;100043.09;;;5.83;100.00
23473;BME280;11909;52.516;13.564;2023-12-20T03:19:32;100037.38;;;5.84;100.00
23473;BME280;11909;52.516;13.564;2023-12-20T03:22:00;100052.34;;;5.82;100.00
23473;BME280;11909;52.516;13.564;2023-12-20T03:24:28;100042.00;;;5.79;100.00
23473;BME280;11909;52.516;13.564;2023-12-20T03:26:56;100046.88;;;5.77;100.00
23473;BME280;11909;52.516;13.564;2023-12-20T03:29:25;100045.50;;;5.74;100.00
23473;BME280;11909;52.516;13.564;2023-12-20T03:31:53;100045.50;;;5.74;100.00
23473;BME280;11909;52.516;13.564;2023-12-20T03:34:21;100041.97;;;5.73;100.00
23473;BME280;11909;52.516;13.564;2023-12-20T03:36:49;100044.72;;;5.79;100.00
23473;BME280;11909;52.516;13.564;2023-12-20T03:39:17;100052.56;;;5.75;100.00
23473;BME280;11909;52.516;13.564;2023-12-20T03:41:45;100060.50;;;5.82;100.00
23473;BME280;11909;52.516;13.564;2023-12-20T03:44:12;100073.81;;;5.73;100.00
23473;BME280;11909;52.516;13.564;2023-12-20T03:46:42;100063.19;;;5.66;100.00
23473;BME280;11909;52.516;13.564;2023-12-20T03:49:12;100055.81;;;5.67;100.00
23473;BME280;11909;52.516;13.564;2023-12-20T03:51:39;100057.47;;;5.73;100.00
23473;BME280;11909;52.516;13.564;2023-12-20T03:54:08;100070.25;;;5.67;100.00
23473;BME280;11909;52.516;13.564;2023-12-20T03:56:36;100070.50;;;5.66;100.00
23473;BME280;11909;52.516;13.564;2023-12-20T03:59:04;100070.47;;;5.55;100.00
23473;BME280;11909;52.516;13.564;2023-12-20T04:01:32;100067.47;;;5.57;100.00
23473;BME280;11909;52.516;13.564;2023-12-20T04:04:02;100061.78;;;5.58;100.00
23473;BME280;11909;52.516;13.564;2023-12-20T04:06:30;100057.44;;;5.63;100.00
23473;BME280;11909;52.516;13.564;2023-12-20T04:08:58;100057.97;;;5.59;100.00
23473;BME280;11909;52.516;13.564;2023-12-20T04:11:26;100062.88;;;5.63;100.00
23473;BME280;11909;52.516;13.564;2023-12-20T04:13:54;100063.19;;;5.66;100.00
23473;BME280;11909;52.516;13.564;2023-12-20T04:16:22;100074.00;;;5.56;100.00
23473;BME280;11909;52.516;13.564;2023-12-20T04:18:49;100061.78;;;5.58;100.00
23473;BME280;11909;52.516;13.564;2023-12-20T04:21:19;100052.78;;;5.58;100.00
23473;BME280;11909;52.516;13.564;2023-12-20T04:23:47;100053.59;;;5.58;100.00
23473;BME280;11909;52.516;13.564;2023-12-20T04:26:15;100065.28;;;5.54;100.00
23473;BME280;11909;52.516;13.564;2023-12-20T04:28:42;100054.38;;;5.54;100.00
23473;BME280;11909;52.516;13.564;2023-12-20T04:31:10;100055.50;;;5.58;100.00
23473;BME280;11909;52.516;13.564;2023-12-20T04:33:39;100062.88;;;5.63;100.00
23473;BME280;11909;52.516;13.564;2023-12-20T04:36:07;100068.00;;;5.54;100.00
23473;BME280;11909;52.516;13.564;2023-12-20T04:38:37;100075.31;;;5.53;100.00
23473;BME280;11909;52.516;13.564;2023-12-20T04:41:05;100079.94;;;5.48;100.00
23473;BME280;11909;52.516;13.564;2023-12-20T04:43:33;100074.22;;;5.49;100.00
23473;BME280;11909;52.516;13.564;2023-12-20T04:46:01;100075.84;;;5.45;100.00
23473;BME280;11909;52.516;13.564;2023-12-20T04:48:28;100086.19;;;5.48;100.00
23473;BME280;11909;52.516;13.564;2023-12-20T04:50:56;100079.88;;;5.37;100.00
23473;BME280;11909;52.516;13.564;2023-12-20T04:53:24;100069.28;;;5.41;100.00
23473;BME280;11909;52.516;13.564;2023-12-20T04:55:54;100058.66;;;5.39;100.00
23473;BME280;11909;52.516;13.564;2023-12-20T04:58:21;100073.34;;;5.38;100.00
23473;BME280;11909;52.516;13.564;2023-12-20T05:00:49;100071.97;;;5.36;100.00
23473;BME280;11909;52.516;13.564;2023-12-20T05:03:17;100083.13;;;5.39;100.00
23473;BME280;11909;52.516;13.564;2023-12-20T05:05:45;100095.66;;;5.40;100.00
23473;BME280;11909;52.516;13.564;2023-12-20T05:08:13;100097.00;;;5.33;100.00
23473;BME280;11909;52.516;13.564;2023-12-20T05:10:42;100097.75;;;5.23;100.00
23473;BME280;11909;52.516;13.564;2023-12-20T05:13:11;100102.94;;;5.29;100.00
23473;BME280;11909;52.516;13.564;2023-12-20T05:15:39;100102.16;;;5.34;100.00
23473;BME280;11909;52.516;13.564;2023-12-20T05:18:07;100109.56;;;5.44;100.00
23473;BME280;11909;52.516;13.564;2023-12-20T05:20:35;100123.72;;;5.41;100.00
23473;BME280;11909;52.516;13.564;2023-12-20T05:23:03;100111.41;;;5.33;100.00
23473;BME280;11909;52.516;13.564;2023-12-20T05:25:31;100112.50;;;5.37;100.00
23473;BME280;11909;52.516;13.564;2023-12-20T05:27:59;100122.06;;;5.40;100.00
23473;BME280;11909;52.516;13.564;2023-12-20T05:30:28;100123.69;;;5.36;100.00
23473;BME280;11909;52.516;13.564;2023-12-20T05:32:56;100125.22;;;5.26;100.00
23473;BME280;11909;52.516;13.564;2023-12-20T05:35:24;100129.19;;;5.46;100.00
23473;BME280;11909;52.516;13.564;2023-12-20T05:37:53;100133.13;;;5.28;100.00
23473;BME280;11909;52.516;13.564;2023-12-20T05:40:21;100133.72;;;5.35;100.00
23473;BME280;11909;52.516;13.564;2023-12-20T05:42:49;100126.88;;;5.27;100.00
23473;BME280;11909;52.516;13.564;2023-12-20T05:45:17;100128.44;;;5.18;100.00
23473;BME280;11909;52.516;13.564;2023-12-20T05:47:46;100131.50;;;5.27;100.00
23473;BME280;11909;52.516;13.564;2023-12-20T05:50:15;100129.75;;;5.15;100.00
23473;BME280;11909;52.516;13.564;2023-12-20T05:52:42;100128.97;;;5.15;100.00
23473;BME280;11909;52.516;13.564;2023-12-20T05:55:10;100131.13;;;5.13;100.00
23473;BME280;11909;52.516;13.564;2023-12-20T05:57:38;100130.22;;;5.02;100.00
23473;BME280;11909;52.516;13.564;2023-12-20T06:00:08;100127.84;;;5.11;100.00
23473;BME280;11909;52.516;13.564;2023-12-20T06:02:36;100128.91;;;5.10;100.00
23473;BME280;11909;52.516;13.564;2023-12-20T06:05:06;100131.56;;;5.05;100.00
23473;BME280;11909;52.516;13.564;2023-12-20T06:07:34;100131.00;;;5.02;100.00
23473;BME280;11909;52.516;13.564;2023-12-20T06:10:02;100134.00;;;5.01;100.00
23473;BME280;11909;52.516;13.564;2023-12-20T06:12:30;100139.44;;;5.01;100.00
23473;BME280;11909;52.516;13.564;2023-12-20T06:14:59;100134.78;;;4.96;100.00
23473;BME280;11909;52.516;13.564;2023-12-20T06:17:28;100120.66;;;4.72;100.00
23473;BME280;11909;52.516;13.564;2023-12-20T06:19:57;100117.34;;;4.92;100.00
23473;BME280;11909;52.516;13.564;2023-12-20T06:22:26;100129.56;;;4.95;100.00
23473;BME280;11909;52.516;13.564;2023-12-20T06:24:54;100115.94;;;4.90;100.00
23473;BME280;11909;52.516;13.564;2023-12-20T06:27:22;100104.50;;;4.87;100.00
23473;BME280;11909;52.516;13.564;2023-12-20T06:29:50;100116.78;;;4.90;100.00
23473;BME280;11909;52.516;13.564;2023-12-20T06:32:18;100106.41;;;4.87;100.00
23473;BME280;11909;52.516;13.564;2023-12-20T06:34:46;100112.41;;;4.89;100.00
23473;BME280;11909;52.516;13.564;2023-12-20T06:37:14;100128.97;;;4.87;100.00
23473;BME280;11909;52.516;13.564;2023-12-20T06:39:44;100127.84;;;4.83;100.00
23473;BME280;11909;52.516;13.564;2023-12-20T06:42:12;100121.66;;;4.88;100.00
23473;BME280;11909;52.516;13.564;2023-12-20T06:44:40;100128.38;;;4.80;100.00
23473;BME280;11909;52.516;13.564;2023-12-20T06:47:08;100120.78;;;4.82;100.00
23473;BME280;11909;52.516;13.564;2023-12-20T06:49:36;100133.75;;;4.75;100.00
23473;BME280;11909;52.516;13.564;2023-12-20T06:52:04;100117.22;;;4.82;100.00
23473;BME280;11909;52.516;13.564;2023-12-20T06:54:32;100128.06;;;4.77;100.00
23473;BME280;11909;52.516;13.564;2023-12-20T06:57:02;100116.63;;;4.74;100.00
23473;BME280;11909;52.516;13.564;2023-12-20T06:59:31;100115.03;;;4.79;100.00
23473;BME280;11909;52.516;13.564;2023-12-20T07:01:59;100109.88;;;4.77;100.00
23473;BME280;11909;52.516;13.564;2023-12-20T07:04:26;100109.53;;;4.73;100.00
23473;BME280;11909;52.516;13.564;2023-12-20T07:06:55;100113.69;;;4.81;100.00
23473;BME280;11909;52.516;13.564;2023-12-20T07:09:24;100115.53;;;4.76;100.00
23473;BME280;11909;52.516;13.564;2023-12-20T07:11:52;100107.94;;;4.78;100.00
23473;BME280;11909;52.516;13.564;2023-12-20T07:14:21;100108.16;;;4.71;100.00
23473;BME280;11909;52.516;13.564;2023-12-20T07:16:49;100107.66;;;4.74;100.00
23473;BME280;11909;52.516;13.564;2023-12-20T07:19:17;100109.22;;;4.70;100.00
23473;BME280;11909;52.516;13.564;2023-12-20T07:21:45;100109.53;;;4.73;100.00
23473;BME280;11909;52.516;13.564;2023-12-20T07:24:13;100100.06;;;4.76;100.00
23473;BME280;11909;52.516;13.564;2023-12-20T07:26:41;100118.78;;;4.72;100.00
23473;BME280;11909;52.516;13.564;2023-12-20T07:29:09;100106.78;;;4.68;100.00
23473;BME280;11909;52.516;13.564;2023-12-20T07:31:38;100108.16;;;4.71;100.00
23473;BME280;11909;52.516;13.564;2023-12-20T07:34:06;100104.44;;;4.77;100.00
23473;BME280;11909;52.516;13.564;2023-12-20T07:36:34;100104.09;;;4.73;100.00
23473;BME280;11909;52.516;13.564;2023-12-20T07:39:02;100102.47;;;4.72;100.00
23473;BME280;11909;52.516;13.564;2023-12-20T07:41:30;100103.31;;;4.73;100.00
23473;BME280;11909;52.516;13.564;2023-12-20T07:43:58;100091.63;;;4.78;100.00
23473;BME280;11909;52.516;13.564;2023-12-20T07:46:26;100098.16;;;4.77;100.00
23473;BME280;11909;52.516;13.564;2023-12-20T07:48:55;100091.69;;;4.83;100.00
23473;BME280;11909;52.516;13.564;2023-12-20T07:51:24;100089.47;;;4.80;100.00
23473;BME280;11909;52.516;13.564;2023-12-20T07:53:52;100099.22;;;4.76;100.00
23473;BME280;11909;52.516;13.564;2023-12-20T07:56:20;100093.78;;;4.76;100.00
23473;BME280;11909;52.516;13.564;2023-12-20T07:58:47;100094.31;;;4.72;100.00
23473;BME280;11909;52.516;13.564;2023-12-20T08:01:20;100092.75;;;4.82;100.00
23473;BME280;11909;52.516;13.564;2023-12-20T08:03:49;100103.97;;;4.91;100.00
23473;BME280;11909;52.516;13.564;2023-12-20T08:06:21;100109.38;;;4.85;100.00
23473;BME280;11909;52.516;13.564;2023-12-20T08:08:49;100111.34;;;4.90;100.00
23473;BME280;11909;52.516;13.564;2023-12-20T08:11:28;100115.38;;;4.87;100.00
23473;BME280;11909;52.516;13.564;2023-12-20T08:13:56;100117.28;;;4.87;100.00
23473;BME280;11909;52.516;13.564;2023-12-20T08:16:24;100119.19;;;4.86;100.00
23473;BME280;11909;52.516;13.564;2023-12-20T08:18:52;100113.22;;;4.90;100.00
23473;BME280;11909;52.516;13.564;2023-12-20T08:21:22;100120.31;;;4.91;100.00
23473;BME280;11909;52.516;13.564;2023-12-20T08:23:50;100122.19;;;4.85;100.00
23473;BME280;11909;52.516;13.564;2023-12-20T08:26:18;100120.84;;;4.93;100.00
23473;BME280;11909;52.516;13.564;2023-12-20T08:28:48;100115.69;;;4.91;100.00
23473;BME280;11909;52.516;13.564;2023-12-20T08:31:17;100119.19;;;4.86;100.00
23473;BME280;11909;52.516;13.564;2023-12-20T08:33:46;100115.13;;;4.89;100.00
23473;BME280;11909;52.516;13.564;2023-12-20T08:36:14;100100.16;;;4.86;100.00
23473;BME280;11909;52.516;13.564;2023-12-20T08:38:45;100109.94;;;4.87;100.00
23473;BME280;11909;52.516;13.564;2023-12-20T08:41:13;100108.59;;;4.85;100.00
23473;BME280;11909;52.516;13.564;2023-12-20T08:43:41;100106.47;;;4.92;100.00
23473;BME280;11909;52.516;13.564;2023-12-20T08:46:09;100107.63;;;5.01;100.00
23473;BME280;11909;52.516;13.564;2023-12-20T08:48:38;100101.91;;;4.98;100.00
23473;BME280;11909;52.516;13.564;2023-12-20T08:51:06;100095.88;;;4.96;100.00
23473;BME280;11909;52.516;13.564;2023-12-20T08:53:35;100106.28;;;5.04;100.00
23473;BME280;11909;52.516;13.564;2023-12-20T08:56:05;100097.00;;;5.00;100.00
23473;BME280;11909;52.516;13.564;2023-12-20T08:58:33;100105.72;;;5.02;100.00
23473;BME280;11909;52.516;13.564;2023-12-20T09:01:03;100107.06;;;4.99;100.00
23473;BME280;11909;52.516;13.564;2023-12-20T09:03:31;100098.66;;;5.01;100.00
23473;BME280;11909;52.516;13.564;2023-12-20T09:05:59;100093.03;;;5.13;100.00
23473;BME280;11909;52.516;13.564;2023-12-20T09:08:27;100096.31;;;5.15;100.00
23473;BME280;11909;52.516;13.564;2023-12-20T09:10:55;100101.47;;;5.16;100.00
23473;BME280;11909;52.516;13.564;2023-12-20T09:13:25;100099.06;;;5.20;100.00
23473;BME280;11909;52.516;13.564;2023-12-20T09:15:55;100092.03;;;5.24;100.00
23473;BME280;11909;52.516;13.564;2023-12-20T09:18:23;100125.75;;;5.23;100.00
23473;BME280;11909;52.516;13.564;2023-12-20T09:20:52;100098.25;;;5.20;100.00
23473;BME280;11909;52.516;13.564;2023-12-20T09:23:20;100094.72;;;5.19;100.00
23473;BME280;11909;52.516;13.564;2023-12-20T09:25:48;100083.41;;;5.38;100.00
23473;BME280;11909;52.516;13.564;2023-12-20T09:28:16;100091.84;;;5.36;100.00
23473;BME280;11909;52.516;13.564;2023-12-20T09:30:45;100107.91;;;5.38;100.00
23473;BME280;11909;52.516;13.564;2023-12-20T09:33:14;100104.59;;;5.30;100.00
23473;BME280;11909;52.516;13.564;2023-12-20T09:35:42;100096.16;;;5.32;100.00
23473;BME280;11909;52.516;13.564;2023-12-20T09:38:11;100085.03;;;5.34;100.00
23473;BME280;11909;52.516;13.564;2023-12-20T09:40:41;100097.25;;;5.31;100.00
23473;BME280;11909;52.516;13.564;2023-12-20T09:43:12;100100.22;;;5.29;100.00
23473;BME280;11909;52.516;13.564;2023-12-20T09:45:41;100083.59;;;5.26;100.00
23473;BME280;11909;52.516;13.564;2023-12-20T09:48:12;100072.69;;;5.21;100.00
23473;BME280;11909;52.516;13.564;2023-12-20T09:50:41;100067.25;;;5.21;100.00
23473;BME280;11909;52.516;13.564;2023-12-20T09:53:17;100074.09;;;5.28;100.00
23473;BME280;11909;52.516;13.564;2023-12-20T09:55:47;100077.31;;;5.20;100.00
23473;BME280;11909;52.516;13.564;2023-12-20T09:58:16;100066.75;;;5.29;100.00
23473;BME280;11909;52.516;13.564;2023-12-20T10:00:43;100067.56;;;5.29;100.00
23473;BME280;11909;52.516;13.564;2023-12-20T10:03:14;100066.44;;;5.25;100.00
23473;BME280;11909;52.516;13.564;2023-12-20T10:05:43;100066.72;;;5.24;100.00
23473;BME280;11909;52.516;13.564;2023-12-20T10:08:12;100057.72;;;5.23;100.00
23473;BME280;11909;52.516;13.564;2023-12-20T10:10:40;100059.38;;;5.24;100.00
23473;BME280;11909;52.516;13.564;2023-12-20T10:13:15;100047.72;;;5.29;100.00
23473;BME280;11909;52.516;13.564;2023-12-20T10:15:43;100048.84;;;5.38;100.00
23473;BME280;11909;52.516;13.564;2023-12-20T10:18:13;100033.88;;;5.36;100.00
23473;BME280;11909;52.516;13.564;2023-12-20T10:20:41;100034.69;;;5.36;100.00
23473;BME280;11909;52.516;13.564;2023-12-20T10:23:10;100022.44;;;5.34;100.00
23473;BME280;11909;52.516;13.564;2023-12-20T10:25:39;100021.94;;;5.42;100.00
23473;BME280;11909;52.516;13.564;2023-12-20T10:28:12;100025.50;;;5.42;100.00
23473;BME280;11909;52.516;13.564;2023-12-20T10:30:41;100030.09;;;5.42;100.00
23473;BME280;11909;52.516;13.564;2023-12-20T10:33:10;100030.41;;;5.45;100.00
23473;BME280;11909;52.516;13.564;2023-12-20T10:35:40;100024.13;;;5.45;100.00
23473;BME280;11909;52.516;13.564;2023-12-20T10:38:14;100029.88;;;5.49;100.00
23473;BME280;11909;52.516;13.564;2023-12-20T10:40:45;100044.28;;;5.49;100.00
23473;BME280;11909;52.516;13.564;2023-12-20T10:43:13;100027.41;;;5.47;100.00
23473;BME280;11909;52.516;13.564;2023-12-20T10:45:42;100016.25;;;5.49;100.00
23473;BME280;11909;52.516;13.564;2023-12-20T10:48:10;100017.13;;;5.54;100.00
23473;BME280;11909;52.516;13.564;2023-12-20T10:50:41;100016.59;;;5.63;100.00
23473;BME280;11909;52.516;13.564;2023-12-20T10:53:08;99997.00;;;5.60;100.00
23473;BME280;11909;52.516;13.564;2023-12-20T10:55:36;99994.28;;;5.60;100.00
23473;BME280;11909;52.516;13.564;2023-12-20T10:58:07;100004.06;;;5.62;100.00
23473;BME280;11909;52.516;13.564;2023-12-20T11:00:35;100004.63;;;5.58;100.00
23473;BME280;11909;52.516;13.564;2023-12-20T11:03:08;99995.38;;;5.65;100.00
23473;BME280;11909;52.516;13.564;2023-12-20T11:05:43;100003.28;;;5.66;100.00
23473;BME280;11909;52.516;13.564;2023-12-20T11:08:20;99996.44;;;5.58;100.00
23473;BME280;11909;52.516;13.564;2023-12-20T11:10:54;99991.25;;;5.62;100.00
23473;BME280;11909;52.516;13.564;2023-12-20T11:13:28;99988.53;;;5.62;100.00
23473;BME280;11909;52.516;13.564;2023-12-20T11:15:59;99981.22;;;5.68;100.00
23473;BME280;11909;52.516;13.564;2023-12-20T11:18:30;99985.03;;;5.72;100.00
23473;BME280;11909;52.516;13.564;2023-12-20T11:21:03;99981.53;;;5.71;100.00
23473;BME280;11909;52.516;13.564;2023-12-20T11:23:32;99978.50;;;5.68;100.00
23473;BME280;11909;52.516;13.564;2023-12-20T11:26:02;99958.38;;;5.69;100.00
23473;BME280;11909;52.516;13.564;2023-12-20T11:28:30;99949.94;;;5.65;100.00
23473;BME280;11909;52.516;13.564;2023-12-20T11:31:00;99946.91;;;5.62;100.00
23473;BME280;11909;52.516;13.564;2023-12-20T11:33:30;99934.41;;;5.66;100.00
23473;BME280;11909;52.516;13.564;2023-12-20T11:35:59;99931.97;;;5.69;100.00
23473;BME280;11909;52.516;13.564;2023-12-20T11:38:36;99938.22;;;5.70;100.00
23473;BME280;11909;52.516;13.564;2023-12-20T11:41:06;99934.94;;;5.63;100.00
23473;BME280;11909;52.516;13.564;2023-12-20T11:43:38;99907.41;;;5.59;100.00
23473;BME280;11909;52.516;13.564;2023-12-20T11:46:07;99903.66;;;5.65;100.00
23473;BME280;11909;52.516;13.564;2023-12-20T11:48:38;99882.13;;;5.58;100.00
23473;BME280;11909;52.516;13.564;2023-12-20T11:51:10;99875.53;;;5.49;100.00
23473;BME280;11909;52.516;13.564;2023-12-20T11:53:40;99881.56;;;5.56;100.00
23473;BME280;11909;52.516;13.564;2023-12-20T11:56:09;99896.50;;;5.49;100.00
23473;BME280;11909;52.516;13.564;2023-12-20T11:58:37;99885.63;;;5.54;100.00
23473;BME280;11909;52.516;13.564;2023-12-20T12:01:06;99883.72;;;5.49;100.00
23473;BME280;11909;52.516;13.564;2023-12-20T12:03:35;99879.91;;;5.50;100.00
23473;BME280;11909;52.516;13.564;2023-12-20T12:06:04;99867.38;;;5.49;100.00
23473;BME280;11909;52.516;13.564;2023-12-20T12:08:32;99859.50;;;5.48;100.00
23473;BME280;11909;52.516;13.564;2023-12-20T12:11:01;99848.38;;;5.54;100.00
23473;BME280;11909;52.516;13.564;2023-12-20T12:13:30;99832.03;;;5.59;100.00
23473;BME280;11909;52.516;13.564;2023-12-20T12:15:59;99845.34;;;5.56;100.00
23473;BME280;11909;52.516;13.564;2023-12-20T12:18:27;99834.75;;;5.59;100.00
23473;BME280;11909;52.516;13.564;2023-12-20T12:21:00;99818.13;;;5.56;100.00
23473;BME280;11909;52.516;13.564;2023-12-20T12:23:28;99817.34;;;5.60;100.00
23473;BME280;11909;52.516;13.564;2023-12-20T12:25:56;99814.63;;;5.60;100.00
23473;BME280;11909;52.516;13.564;2023-12-20T12:28:27;99811.06;;;5.60;100.00
23473;BME280;11909;52.516;13.564;2023-12-20T12:30:56;99799.38;;;5.59;100.00
23473;BME280;11909;52.516;13.564;2023-12-20T12:33:25;99806.44;;;5.60;100.00
23473;BME280;11909;52.516;13.564;2023-12-20T12:35:54;99795.03;;;5.58;100.00
23473;BME280;11909;52.516;13.564;2023-12-20T12:38:22;99790.91;;;5.51;100.00
23473;BME280;11909;52.516;13.564;2023-12-20T12:40:51;99778.66;;;5.48;100.00
23473;BME280;11909;52.516;13.564;2023-12-20T12:43:20;99769.13;;;5.40;100.00
23473;BME280;11909;52.516;13.564;2023-12-20T12:45:51;99768.88;;;5.42;100.00
23473;BME280;11909;52.516;13.564;2023-12-20T12:48:19;99756.06;;;5.37;100.00